ΕΜΥ, Εθνική Μετεωρολογική Υπηρεσία - Δελτία Καιρού, Προγνώσεις

ΑΕΡΟΝΑΥΤΙΛΙΑ

GREEK AIRPORTS CODES

LGAL 221550Z 00000KT 9999 FEW020 11/07 Q1019=

EUROPEAN AIRPORTS CODES